Terminal Aerodrome Forecast
Issued by NWS Corpus Christi, TX

Home | Current Version | Previous Version | Text Only | Print | Product List | Glossary On
Versions: 1 2 3 4 5 6 7 8 9 10 11 12 13 14 15 16 17
000
FTUS44 KCRP 210900 AAA
TAFCRP
TAF AMD
KCRP 210931Z 2110/2206 07005KT P6SM VCSH SCT015 BKN200
      TEMPO 2110/2114 3SM SHRA
     FM211400 08009KT P6SM SCT025 SCT150
     FM211800 10012KT P6SM SCT035
     FM220000 10005KT P6SM FEW015=

USA.gov is the U.S. government's official web portal to all federal, state and local government web resources and services.